sensor_id;sensor_type;location;lat;lon;timestamp;P1;durP1;ratioP1;P2;durP2;ratioP2
65477;SDS011;53678;39.642;22.430;2022-10-17T00:02:16;25.80;;;15.10;;
65477;SDS011;53678;39.642;22.430;2022-10-17T00:04:42;19.60;;;13.55;;
65477;SDS011;53678;39.642;22.430;2022-10-17T00:07:08;26.80;;;13.98;;
65477;SDS011;53678;39.642;22.430;2022-10-17T00:09:34;23.75;;;14.40;;
65477;SDS011;53678;39.642;22.430;2022-10-17T00:12:00;18.90;;;13.38;;
65477;SDS011;53678;39.642;22.430;2022-10-17T00:14:26;23.00;;;14.45;;
65477;SDS011;53678;39.642;22.430;2022-10-17T00:16:52;24.60;;;14.68;;
65477;SDS011;53678;39.642;22.430;2022-10-17T00:19:18;31.23;;;16.55;;
65477;SDS011;53678;39.642;22.430;2022-10-17T00:21:44;27.73;;;16.15;;
65477;SDS011;53678;39.642;22.430;2022-10-17T00:24:10;25.02;;;15.43;;
65477;SDS011;53678;39.642;22.430;2022-10-17T00:26:36;22.80;;;15.98;;
65477;SDS011;53678;39.642;22.430;2022-10-17T00:29:02;25.95;;;16.13;;
65477;SDS011;53678;39.642;22.430;2022-10-17T00:31:28;23.42;;;15.27;;
65477;SDS011;53678;39.642;22.430;2022-10-17T00:33:53;21.75;;;15.25;;
65477;SDS011;53678;39.642;22.430;2022-10-17T00:36:20;23.83;;;15.20;;
65477;SDS011;53678;39.642;22.430;2022-10-17T00:38:56;24.85;;;15.23;;
65477;SDS011;53678;39.642;22.430;2022-10-17T00:41:28;23.70;;;14.43;;
65477;SDS011;53678;39.642;22.430;2022-10-17T00:44:04;38.20;;;16.77;;
65477;SDS011;53678;39.642;22.430;2022-10-17T00:46:33;29.77;;;15.65;;
65477;SDS011;53678;39.642;22.430;2022-10-17T00:49:07;28.23;;;16.77;;
65477;SDS011;53678;39.642;22.430;2022-10-17T00:51:45;26.02;;;15.38;;
65477;SDS011;53678;39.642;22.430;2022-10-17T00:54:13;23.70;;;14.20;;
65477;SDS011;53678;39.642;22.430;2022-10-17T00:56:41;18.75;;;13.60;;
65477;SDS011;53678;39.642;22.430;2022-10-17T00:59:10;20.88;;;14.07;;
65477;SDS011;53678;39.642;22.430;2022-10-17T01:01:40;20.42;;;12.85;;
65477;SDS011;53678;39.642;22.430;2022-10-17T01:04:11;17.02;;;12.93;;
65477;SDS011;53678;39.642;22.430;2022-10-17T01:06:38;23.15;;;13.60;;
65477;SDS011;53678;39.642;22.430;2022-10-17T01:09:04;23.02;;;13.18;;
65477;SDS011;53678;39.642;22.430;2022-10-17T01:11:32;28.85;;;14.65;;
65477;SDS011;53678;39.642;22.430;2022-10-17T01:21:53;22.88;;;12.82;;
65477;SDS011;53678;39.642;22.430;2022-10-17T01:27:23;20.20;;;12.57;;
65477;SDS011;53678;39.642;22.430;2022-10-17T01:32:30;19.27;;;12.20;;
65477;SDS011;53678;39.642;22.430;2022-10-17T01:35:09;18.45;;;12.30;;
65477;SDS011;53678;39.642;22.430;2022-10-17T01:38:11;16.90;;;11.18;;
65477;SDS011;53678;39.642;22.430;2022-10-17T01:40:59;18.23;;;11.95;;
65477;SDS011;53678;39.642;22.430;2022-10-17T01:43:32;16.33;;;10.63;;
65477;SDS011;53678;39.642;22.430;2022-10-17T01:46:17;17.02;;;11.80;;
65477;SDS011;53678;39.642;22.430;2022-10-17T01:48:53;21.02;;;13.38;;
65477;SDS011;53678;39.642;22.430;2022-10-17T01:51:28;18.52;;;12.50;;
65477;SDS011;53678;39.642;22.430;2022-10-17T01:53:59;16.10;;;10.57;;
65477;SDS011;53678;39.642;22.430;2022-10-17T01:56:29;18.83;;;12.80;;
65477;SDS011;53678;39.642;22.430;2022-10-17T01:58:59;17.60;;;12.65;;
65477;SDS011;53678;39.642;22.430;2022-10-17T02:01:30;16.58;;;12.50;;
65477;SDS011;53678;39.642;22.430;2022-10-17T02:03:58;15.13;;;11.43;;
65477;SDS011;53678;39.642;22.430;2022-10-17T02:06:26;16.48;;;11.45;;
65477;SDS011;53678;39.642;22.430;2022-10-17T02:08:54;15.02;;;11.18;;
65477;SDS011;53678;39.642;22.430;2022-10-17T02:11:21;18.17;;;11.07;;
65477;SDS011;53678;39.642;22.430;2022-10-17T02:27:30;17.02;;;11.73;;
65477;SDS011;53678;39.642;22.430;2022-10-17T02:33:05;16.65;;;11.73;;
65477;SDS011;53678;39.642;22.430;2022-10-17T02:35:32;19.17;;;12.50;;
65477;SDS011;53678;39.642;22.430;2022-10-17T02:38:02;18.65;;;11.85;;
65477;SDS011;53678;39.642;22.430;2022-10-17T02:40:30;16.05;;;11.07;;
65477;SDS011;53678;39.642;22.430;2022-10-17T02:42:57;20.80;;;11.45;;
65477;SDS011;53678;39.642;22.430;2022-10-17T02:45:27;22.38;;;11.57;;
65477;SDS011;53678;39.642;22.430;2022-10-17T02:48:02;21.65;;;12.55;;
65477;SDS011;53678;39.642;22.430;2022-10-17T02:50:50;20.65;;;12.60;;
65477;SDS011;53678;39.642;22.430;2022-10-17T02:53:43;26.75;;;12.65;;
65477;SDS011;53678;39.642;22.430;2022-10-17T02:56:36;17.85;;;11.95;;
65477;SDS011;53678;39.642;22.430;2022-10-17T02:59:06;16.63;;;11.52;;
65477;SDS011;53678;39.642;22.430;2022-10-17T03:01:36;18.20;;;11.77;;
65477;SDS011;53678;39.642;22.430;2022-10-17T03:04:06;18.00;;;11.52;;
65477;SDS011;53678;39.642;22.430;2022-10-17T03:06:34;23.30;;;13.02;;
65477;SDS011;53678;39.642;22.430;2022-10-17T03:09:00;18.30;;;13.40;;
65477;SDS011;53678;39.642;22.430;2022-10-17T03:11:26;19.92;;;11.30;;
65477;SDS011;53678;39.642;22.430;2022-10-17T03:13:52;16.17;;;10.60;;
65477;SDS011;53678;39.642;22.430;2022-10-17T03:16:18;14.45;;;10.73;;
65477;SDS011;53678;39.642;22.430;2022-10-17T03:18:43;19.85;;;11.13;;
65477;SDS011;53678;39.642;22.430;2022-10-17T03:21:09;19.48;;;12.07;;
65477;SDS011;53678;39.642;22.430;2022-10-17T03:23:35;23.92;;;12.45;;
65477;SDS011;53678;39.642;22.430;2022-10-17T03:26:04;15.30;;;10.90;;
65477;SDS011;53678;39.642;22.430;2022-10-17T03:28:32;17.00;;;11.82;;
65477;SDS011;53678;39.642;22.430;2022-10-17T03:30:58;17.08;;;10.73;;
65477;SDS011;53678;39.642;22.430;2022-10-17T03:33:25;18.27;;;11.98;;
65477;SDS011;53678;39.642;22.430;2022-10-17T03:35:51;19.52;;;11.85;;
65477;SDS011;53678;39.642;22.430;2022-10-17T03:38:18;15.50;;;11.82;;
65477;SDS011;53678;39.642;22.430;2022-10-17T03:40:43;17.58;;;10.30;;
65477;SDS011;53678;39.642;22.430;2022-10-17T03:43:10;19.10;;;12.27;;
65477;SDS011;53678;39.642;22.430;2022-10-17T03:45:38;18.50;;;12.10;;
65477;SDS011;53678;39.642;22.430;2022-10-17T03:48:04;20.13;;;12.85;;
65477;SDS011;53678;39.642;22.430;2022-10-17T03:50:30;21.73;;;12.85;;
65477;SDS011;53678;39.642;22.430;2022-10-17T03:52:57;27.83;;;13.98;;
65477;SDS011;53678;39.642;22.430;2022-10-17T03:55:23;22.90;;;14.00;;
65477;SDS011;53678;39.642;22.430;2022-10-17T03:57:49;19.95;;;13.68;;
65477;SDS011;53678;39.642;22.430;2022-10-17T04:00:17;18.08;;;12.40;;
65477;SDS011;53678;39.642;22.430;2022-10-17T04:02:52;21.35;;;14.05;;
65477;SDS011;53678;39.642;22.430;2022-10-17T04:05:18;18.88;;;12.75;;
65477;SDS011;53678;39.642;22.430;2022-10-17T04:07:45;19.73;;;13.05;;
65477;SDS011;53678;39.642;22.430;2022-10-17T04:10:12;21.73;;;13.30;;
65477;SDS011;53678;39.642;22.430;2022-10-17T04:12:38;24.15;;;14.15;;
65477;SDS011;53678;39.642;22.430;2022-10-17T04:15:05;35.75;;;15.38;;
65477;SDS011;53678;39.642;22.430;2022-10-17T04:17:31;18.98;;;13.45;;
65477;SDS011;53678;39.642;22.430;2022-10-17T04:19:57;19.45;;;11.93;;
65477;SDS011;53678;39.642;22.430;2022-10-17T04:22:23;20.30;;;13.02;;
65477;SDS011;53678;39.642;22.430;2022-10-17T04:24:50;23.10;;;13.30;;
65477;SDS011;53678;39.642;22.430;2022-10-17T04:27:26;17.25;;;12.55;;
65477;SDS011;53678;39.642;22.430;2022-10-17T04:29:52;19.15;;;12.25;;
65477;SDS011;53678;39.642;22.430;2022-10-17T04:32:21;21.60;;;12.95;;
65477;SDS011;53678;39.642;22.430;2022-10-17T04:35:01;34.00;;;13.60;;
65477;SDS011;53678;39.642;22.430;2022-10-17T04:37:27;37.28;;;14.70;;
65477;SDS011;53678;39.642;22.430;2022-10-17T04:39:54;18.40;;;11.85;;
65477;SDS011;53678;39.642;22.430;2022-10-17T04:42:20;15.13;;;11.30;;
65477;SDS011;53678;39.642;22.430;2022-10-17T04:44:48;22.75;;;12.45;;
65477;SDS011;53678;39.642;22.430;2022-10-17T04:47:16;22.42;;;11.80;;
65477;SDS011;53678;39.642;22.430;2022-10-17T04:49:42;18.77;;;11.70;;
65477;SDS011;53678;39.642;22.430;2022-10-17T04:52:13;18.80;;;12.32;;
65477;SDS011;53678;39.642;22.430;2022-10-17T04:54:44;20.60;;;11.85;;
65477;SDS011;53678;39.642;22.430;2022-10-17T04:57:12;21.30;;;13.60;;
65477;SDS011;53678;39.642;22.430;2022-10-17T04:59:39;23.80;;;11.98;;
65477;SDS011;53678;39.642;22.430;2022-10-17T05:02:25;18.58;;;12.63;;
65477;SDS011;53678;39.642;22.430;2022-10-17T05:04:51;22.90;;;12.02;;
65477;SDS011;53678;39.642;22.430;2022-10-17T05:07:18;21.27;;;13.27;;
65477;SDS011;53678;39.642;22.430;2022-10-17T05:09:51;18.80;;;12.38;;
65477;SDS011;53678;39.642;22.430;2022-10-17T05:12:17;26.48;;;13.52;;
65477;SDS011;53678;39.642;22.430;2022-10-17T05:14:44;22.67;;;14.07;;
65477;SDS011;53678;39.642;22.430;2022-10-17T05:17:10;18.70;;;14.48;;
65477;SDS011;53678;39.642;22.430;2022-10-17T05:19:37;20.73;;;11.30;;
65477;SDS011;53678;39.642;22.430;2022-10-17T05:22:04;22.40;;;12.60;;
65477;SDS011;53678;39.642;22.430;2022-10-17T05:24:30;20.63;;;11.93;;
65477;SDS011;53678;39.642;22.430;2022-10-17T05:26:56;16.70;;;12.65;;
65477;SDS011;53678;39.642;22.430;2022-10-17T05:29:22;18.77;;;12.32;;
65477;SDS011;53678;39.642;22.430;2022-10-17T05:31:53;21.13;;;12.35;;
65477;SDS011;53678;39.642;22.430;2022-10-17T05:34:19;23.10;;;12.85;;
65477;SDS011;53678;39.642;22.430;2022-10-17T05:36:45;16.23;;;10.38;;
65477;SDS011;53678;39.642;22.430;2022-10-17T05:39:13;23.58;;;12.13;;
65477;SDS011;53678;39.642;22.430;2022-10-17T05:41:44;13.82;;;10.00;;
65477;SDS011;53678;39.642;22.430;2022-10-17T05:44:11;23.52;;;11.07;;
65477;SDS011;53678;39.642;22.430;2022-10-17T05:46:46;18.80;;;10.43;;
65477;SDS011;53678;39.642;22.430;2022-10-17T05:49:13;15.63;;;9.07;;
65477;SDS011;53678;39.642;22.430;2022-10-17T05:51:39;14.90;;;9.52;;
65477;SDS011;53678;39.642;22.430;2022-10-17T05:54:06;18.20;;;10.65;;
65477;SDS011;53678;39.642;22.430;2022-10-17T05:56:33;18.38;;;8.40;;
65477;SDS011;53678;39.642;22.430;2022-10-17T05:59:00;22.60;;;9.05;;
65477;SDS011;53678;39.642;22.430;2022-10-17T06:01:40;14.40;;;8.50;;
65477;SDS011;53678;39.642;22.430;2022-10-17T06:04:06;15.75;;;7.80;;
65477;SDS011;53678;39.642;22.430;2022-10-17T06:06:32;18.27;;;8.88;;
65477;SDS011;53678;39.642;22.430;2022-10-17T06:09:02;10.38;;;7.38;;
65477;SDS011;53678;39.642;22.430;2022-10-17T06:11:32;15.77;;;7.78;;
65477;SDS011;53678;39.642;22.430;2022-10-17T06:13:58;11.30;;;7.78;;
65477;SDS011;53678;39.642;22.430;2022-10-17T06:16:27;9.85;;;7.20;;
65477;SDS011;53678;39.642;22.430;2022-10-17T06:18:53;12.30;;;8.15;;
65477;SDS011;53678;39.642;22.430;2022-10-17T06:21:23;12.70;;;7.85;;
65477;SDS011;53678;39.642;22.430;2022-10-17T06:23:55;17.17;;;8.57;;
65477;SDS011;53678;39.642;22.430;2022-10-17T06:26:27;12.77;;;7.97;;
65477;SDS011;53678;39.642;22.430;2022-10-17T06:28:53;16.85;;;8.02;;
65477;SDS011;53678;39.642;22.430;2022-10-17T06:31:19;17.30;;;7.20;;
65477;SDS011;53678;39.642;22.430;2022-10-17T06:33:45;16.52;;;9.05;;
65477;SDS011;53678;39.642;22.430;2022-10-17T06:36:12;20.48;;;8.73;;
65477;SDS011;53678;39.642;22.430;2022-10-17T06:38:39;21.20;;;9.60;;
65477;SDS011;53678;39.642;22.430;2022-10-17T06:41:17;13.25;;;8.02;;
65477;SDS011;53678;39.642;22.430;2022-10-17T06:43:44;11.57;;;8.48;;
65477;SDS011;53678;39.642;22.430;2022-10-17T06:46:29;20.00;;;9.68;;
65477;SDS011;53678;39.642;22.430;2022-10-17T06:49:01;13.23;;;8.50;;
65477;SDS011;53678;39.642;22.430;2022-10-17T06:51:55;16.20;;;7.85;;
65477;SDS011;53678;39.642;22.430;2022-10-17T06:54:29;13.65;;;8.00;;
65477;SDS011;53678;39.642;22.430;2022-10-17T06:57:13;11.55;;;8.27;;
65477;SDS011;53678;39.642;22.430;2022-10-17T06:59:49;10.43;;;6.93;;
65477;SDS011;53678;39.642;22.430;2022-10-17T07:02:19;13.80;;;8.13;;
65477;SDS011;53678;39.642;22.430;2022-10-17T07:04:48;14.43;;;8.32;;
65477;SDS011;53678;39.642;22.430;2022-10-17T07:07:14;15.95;;;8.57;;
65477;SDS011;53678;39.642;22.430;2022-10-17T07:09:40;13.27;;;8.18;;
65477;SDS011;53678;39.642;22.430;2022-10-17T07:12:07;15.02;;;8.00;;
65477;SDS011;53678;39.642;22.430;2022-10-17T07:14:33;13.27;;;8.55;;
65477;SDS011;53678;39.642;22.430;2022-10-17T07:17:00;14.43;;;8.88;;
65477;SDS011;53678;39.642;22.430;2022-10-17T07:19:30;12.35;;;8.70;;
65477;SDS011;53678;39.642;22.430;2022-10-17T07:21:56;13.60;;;9.05;;
65477;SDS011;53678;39.642;22.430;2022-10-17T07:24:21;12.40;;;8.77;;
65477;SDS011;53678;39.642;22.430;2022-10-17T07:27:01;14.73;;;8.77;;
65477;SDS011;53678;39.642;22.430;2022-10-17T07:29:27;13.00;;;9.50;;
65477;SDS011;53678;39.642;22.430;2022-10-17T07:32:03;12.95;;;8.63;;
65477;SDS011;53678;39.642;22.430;2022-10-17T07:34:33;14.52;;;8.68;;
65477;SDS011;53678;39.642;22.430;2022-10-17T07:37:00;13.98;;;8.13;;
65477;SDS011;53678;39.642;22.430;2022-10-17T07:39:26;12.38;;;8.32;;
65477;SDS011;53678;39.642;22.430;2022-10-17T07:41:52;12.07;;;7.70;;
65477;SDS011;53678;39.642;22.430;2022-10-17T07:44:20;13.13;;;7.15;;
65477;SDS011;53678;39.642;22.430;2022-10-17T07:46:48;15.60;;;8.35;;
65477;SDS011;53678;39.642;22.430;2022-10-17T07:49:15;11.95;;;8.75;;
65477;SDS011;53678;39.642;22.430;2022-10-17T07:51:41;14.40;;;8.32;;
65477;SDS011;53678;39.642;22.430;2022-10-17T07:54:07;14.18;;;10.07;;
65477;SDS011;53678;39.642;22.430;2022-10-17T07:56:33;12.35;;;9.23;;
65477;SDS011;53678;39.642;22.430;2022-10-17T07:58:59;18.42;;;9.43;;
65477;SDS011;53678;39.642;22.430;2022-10-17T08:01:24;18.65;;;10.05;;
65477;SDS011;53678;39.642;22.430;2022-10-17T08:03:52;13.43;;;8.48;;
65477;SDS011;53678;39.642;22.430;2022-10-17T08:06:18;14.85;;;8.68;;
65477;SDS011;53678;39.642;22.430;2022-10-17T08:08:43;13.38;;;7.90;;
65477;SDS011;53678;39.642;22.430;2022-10-17T08:11:11;18.38;;;8.20;;
65477;SDS011;53678;39.642;22.430;2022-10-17T08:13:38;16.08;;;7.75;;
65477;SDS011;53678;39.642;22.430;2022-10-17T08:16:06;11.95;;;7.00;;
65477;SDS011;53678;39.642;22.430;2022-10-17T08:18:35;13.20;;;8.18;;
65477;SDS011;53678;39.642;22.430;2022-10-17T08:21:03;9.48;;;7.57;;
65477;SDS011;53678;39.642;22.430;2022-10-17T08:23:32;11.35;;;6.22;;
65477;SDS011;53678;39.642;22.430;2022-10-17T08:25:59;14.05;;;7.97;;
65477;SDS011;53678;39.642;22.430;2022-10-17T08:28:25;11.05;;;7.28;;
65477;SDS011;53678;39.642;22.430;2022-10-17T08:30:51;9.23;;;6.25;;
65477;SDS011;53678;39.642;22.430;2022-10-17T08:33:17;11.07;;;6.00;;
65477;SDS011;53678;39.642;22.430;2022-10-17T08:35:43;10.10;;;6.22;;
65477;SDS011;53678;39.642;22.430;2022-10-17T08:38:09;10.15;;;5.50;;
65477;SDS011;53678;39.642;22.430;2022-10-17T08:40:34;12.18;;;6.07;;
65477;SDS011;53678;39.642;22.430;2022-10-17T08:43:37;6.85;;;5.65;;
65477;SDS011;53678;39.642;22.430;2022-10-17T08:48:35;9.15;;;6.22;;
65477;SDS011;53678;39.642;22.430;2022-10-17T08:51:05;11.27;;;6.22;;
65477;SDS011;53678;39.642;22.430;2022-10-17T08:53:42;8.00;;;5.35;;
65477;SDS011;53678;39.642;22.430;2022-10-17T08:58:49;12.10;;;5.38;;
65477;SDS011;53678;39.642;22.430;2022-10-17T09:06:51;10.32;;;4.78;;
65477;SDS011;53678;39.642;22.430;2022-10-17T09:12:04;6.63;;;4.38;;
65477;SDS011;53678;39.642;22.430;2022-10-17T09:20:30;8.43;;;5.15;;
65477;SDS011;53678;39.642;22.430;2022-10-17T09:23:17;8.48;;;4.25;;
65477;SDS011;53678;39.642;22.430;2022-10-17T09:25:57;12.45;;;4.53;;
65477;SDS011;53678;39.642;22.430;2022-10-17T09:28:29;9.52;;;4.90;;
65477;SDS011;53678;39.642;22.430;2022-10-17T09:31:02;10.13;;;4.82;;
65477;SDS011;53678;39.642;22.430;2022-10-17T09:33:40;10.73;;;5.72;;
65477;SDS011;53678;39.642;22.430;2022-10-17T09:38:42;11.95;;;5.50;;
65477;SDS011;53678;39.642;22.430;2022-10-17T09:41:12;9.23;;;5.20;;
65477;SDS011;53678;39.642;22.430;2022-10-17T09:43:42;13.80;;;5.30;;
65477;SDS011;53678;39.642;22.430;2022-10-17T09:46:12;18.95;;;5.82;;
65477;SDS011;53678;39.642;22.430;2022-10-17T09:49:09;14.55;;;4.72;;
65477;SDS011;53678;39.642;22.430;2022-10-17T09:51:41;10.27;;;5.20;;
65477;SDS011;53678;39.642;22.430;2022-10-17T09:54:26;11.15;;;5.30;;
65477;SDS011;53678;39.642;22.430;2022-10-17T09:57:03;11.32;;;4.72;;
65477;SDS011;53678;39.642;22.430;2022-10-17T09:59:34;9.13;;;3.95;;
65477;SDS011;53678;39.642;22.430;2022-10-17T10:02:11;6.32;;;4.60;;
65477;SDS011;53678;39.642;22.430;2022-10-17T10:05:02;4.90;;;3.60;;
65477;SDS011;53678;39.642;22.430;2022-10-17T10:07:30;8.48;;;4.35;;
65477;SDS011;53678;39.642;22.430;2022-10-17T10:10:05;5.40;;;3.88;;
65477;SDS011;53678;39.642;22.430;2022-10-17T10:12:46;6.38;;;4.30;;
65477;SDS011;53678;39.642;22.430;2022-10-17T10:15:44;13.82;;;5.75;;
65477;SDS011;53678;39.642;22.430;2022-10-17T10:21:02;9.05;;;4.60;;
65477;SDS011;53678;39.642;22.430;2022-10-17T10:23:38;7.00;;;4.20;;
65477;SDS011;53678;39.642;22.430;2022-10-17T10:26:25;6.35;;;3.78;;
65477;SDS011;53678;39.642;22.430;2022-10-17T10:28:56;4.95;;;3.92;;
65477;SDS011;53678;39.642;22.430;2022-10-17T10:31:29;7.57;;;4.70;;
65477;SDS011;53678;39.642;22.430;2022-10-17T10:34:09;7.05;;;4.35;;
65477;SDS011;53678;39.642;22.430;2022-10-17T10:36:52;9.35;;;4.43;;
65477;SDS011;53678;39.642;22.430;2022-10-17T10:39:43;8.90;;;4.78;;
65477;SDS011;53678;39.642;22.430;2022-10-17T10:42:27;6.45;;;4.22;;
65477;SDS011;53678;39.642;22.430;2022-10-17T10:45:18;7.18;;;4.30;;
65477;SDS011;53678;39.642;22.430;2022-10-17T10:47:56;9.57;;;5.13;;
65477;SDS011;53678;39.642;22.430;2022-10-17T10:50:30;6.00;;;3.78;;
65477;SDS011;53678;39.642;22.430;2022-10-17T10:55:43;8.52;;;3.90;;
65477;SDS011;53678;39.642;22.430;2022-10-17T10:58:38;8.18;;;4.13;;
65477;SDS011;53678;39.642;22.430;2022-10-17T11:06:35;6.78;;;3.90;;
65477;SDS011;53678;39.642;22.430;2022-10-17T11:12:06;7.93;;;4.95;;
65477;SDS011;53678;39.642;22.430;2022-10-17T11:14:41;9.25;;;4.60;;
65477;SDS011;53678;39.642;22.430;2022-10-17T11:19:58;5.57;;;4.53;;
65477;SDS011;53678;39.642;22.430;2022-10-17T11:22:30;7.68;;;4.68;;
65477;SDS011;53678;39.642;22.430;2022-10-17T11:25:04;6.78;;;4.53;;
65477;SDS011;53678;39.642;22.430;2022-10-17T11:27:31;5.07;;;3.65;;
65477;SDS011;53678;39.642;22.430;2022-10-17T11:29:59;6.80;;;4.20;;
65477;SDS011;53678;39.642;22.430;2022-10-17T11:32:33;6.22;;;4.43;;
65477;SDS011;53678;39.642;22.430;2022-10-17T11:35:21;5.32;;;3.53;;
65477;SDS011;53678;39.642;22.430;2022-10-17T11:40:49;7.25;;;3.60;;
65477;SDS011;53678;39.642;22.430;2022-10-17T11:46:18;8.18;;;4.22;;
65477;SDS011;53678;39.642;22.430;2022-10-17T11:51:53;8.30;;;4.10;;
65477;SDS011;53678;39.642;22.430;2022-10-17T11:54:44;8.52;;;3.78;;
65477;SDS011;53678;39.642;22.430;2022-10-17T12:02:47;5.15;;;3.90;;
65477;SDS011;53678;39.642;22.430;2022-10-17T12:10:41;5.57;;;3.80;;
65477;SDS011;53678;39.642;22.430;2022-10-17T12:15:54;5.97;;;3.53;;
65477;SDS011;53678;39.642;22.430;2022-10-17T12:18:22;5.32;;;3.88;;
65477;SDS011;53678;39.642;22.430;2022-10-17T12:20:58;7.18;;;4.10;;
65477;SDS011;53678;39.642;22.430;2022-10-17T12:23:28;6.45;;;4.25;;
65477;SDS011;53678;39.642;22.430;2022-10-17T12:25:57;6.80;;;4.13;;
65477;SDS011;53678;39.642;22.430;2022-10-17T12:28:33;6.03;;;3.70;;
65477;SDS011;53678;39.642;22.430;2022-10-17T12:31:09;5.75;;;3.75;;
65477;SDS011;53678;39.642;22.430;2022-10-17T12:33:48;7.38;;;3.50;;
65477;SDS011;53678;39.642;22.430;2022-10-17T12:46:43;6.43;;;3.63;;
65477;SDS011;53678;39.642;22.430;2022-10-17T12:55:05;9.57;;;4.18;;
65477;SDS011;53678;39.642;22.430;2022-10-17T13:00:19;9.93;;;4.13;;
65477;SDS011;53678;39.642;22.430;2022-10-17T13:02:46;6.50;;;4.13;;
65477;SDS011;53678;39.642;22.430;2022-10-17T13:05:20;6.88;;;3.72;;
65477;SDS011;53678;39.642;22.430;2022-10-17T13:07:55;6.80;;;3.17;;
65477;SDS011;53678;39.642;22.430;2022-10-17T13:10:25;7.18;;;3.17;;
65477;SDS011;53678;39.642;22.430;2022-10-17T13:12:59;9.05;;;3.40;;
65477;SDS011;53678;39.642;22.430;2022-10-17T13:15:33;6.97;;;3.30;;
65477;SDS011;53678;39.642;22.430;2022-10-17T13:18:00;5.60;;;2.90;;
65477;SDS011;53678;39.642;22.430;2022-10-17T13:20:27;6.15;;;2.92;;
65477;SDS011;53678;39.642;22.430;2022-10-17T13:22:54;6.72;;;3.10;;
65477;SDS011;53678;39.642;22.430;2022-10-17T13:25:22;4.63;;;3.08;;
65477;SDS011;53678;39.642;22.430;2022-10-17T13:27:49;4.65;;;2.58;;
65477;SDS011;53678;39.642;22.430;2022-10-17T13:30:28;4.47;;;3.20;;
65477;SDS011;53678;39.642;22.430;2022-10-17T13:32:55;4.88;;;2.75;;
65477;SDS011;53678;39.642;22.430;2022-10-17T13:35:23;3.55;;;2.90;;
65477;SDS011;53678;39.642;22.430;2022-10-17T13:37:54;3.75;;;2.50;;
65477;SDS011;53678;39.642;22.430;2022-10-17T13:40:22;6.22;;;2.80;;
65477;SDS011;53678;39.642;22.430;2022-10-17T13:42:51;4.25;;;2.80;;
65477;SDS011;53678;39.642;22.430;2022-10-17T13:48:02;3.65;;;2.75;;
65477;SDS011;53678;39.642;22.430;2022-10-17T13:55:52;5.95;;;3.10;;
65477;SDS011;53678;39.642;22.430;2022-10-17T13:58:46;6.90;;;3.80;;
65477;SDS011;53678;39.642;22.430;2022-10-17T14:01:16;6.32;;;3.20;;
65477;SDS011;53678;39.642;22.430;2022-10-17T14:03:45;4.65;;;3.35;;
65477;SDS011;53678;39.642;22.430;2022-10-17T14:06:16;5.85;;;3.33;;
65477;SDS011;53678;39.642;22.430;2022-10-17T14:13:58;5.10;;;2.70;;
65477;SDS011;53678;39.642;22.430;2022-10-17T14:16:25;4.80;;;3.20;;
65477;SDS011;53678;39.642;22.430;2022-10-17T14:18:57;5.63;;;2.97;;
65477;SDS011;53678;39.642;22.430;2022-10-17T14:21:24;4.60;;;2.58;;
65477;SDS011;53678;39.642;22.430;2022-10-17T14:26:48;4.97;;;2.60;;
65477;SDS011;53678;39.642;22.430;2022-10-17T14:29:23;5.28;;;2.88;;
65477;SDS011;53678;39.642;22.430;2022-10-17T14:32:24;3.20;;;2.40;;
65477;SDS011;53678;39.642;22.430;2022-10-17T14:34:44;7.10;;;3.20;;
65477;SDS011;53678;39.642;22.430;2022-10-17T14:37:57;6.85;;;3.00;;
65477;SDS011;53678;39.642;22.430;2022-10-17T14:40:17;5.80;;;2.88;;
65477;SDS011;53678;39.642;22.430;2022-10-17T14:42:48;6.88;;;2.78;;
65477;SDS011;53678;39.642;22.430;2022-10-17T14:45:25;5.78;;;3.80;;
65477;SDS011;53678;39.642;22.430;2022-10-17T14:47:59;5.38;;;3.53;;
65477;SDS011;53678;39.642;22.430;2022-10-17T14:50:29;6.18;;;3.88;;
65477;SDS011;53678;39.642;22.430;2022-10-17T14:53:16;6.47;;;3.38;;
65477;SDS011;53678;39.642;22.430;2022-10-17T14:55:58;5.10;;;3.92;;
65477;SDS011;53678;39.642;22.430;2022-10-17T14:58:27;6.97;;;3.22;;
65477;SDS011;53678;39.642;22.430;2022-10-17T15:00:55;5.13;;;3.88;;
65477;SDS011;53678;39.642;22.430;2022-10-17T15:03:22;7.93;;;3.90;;
65477;SDS011;53678;39.642;22.430;2022-10-17T15:05:49;8.68;;;4.00;;
65477;SDS011;53678;39.642;22.430;2022-10-17T15:08:16;7.43;;;3.60;;
65477;SDS011;53678;39.642;22.430;2022-10-17T15:10:44;5.82;;;3.65;;
65477;SDS011;53678;39.642;22.430;2022-10-17T15:13:11;7.55;;;3.90;;
65477;SDS011;53678;39.642;22.430;2022-10-17T15:15:38;7.05;;;3.95;;
65477;SDS011;53678;39.642;22.430;2022-10-17T15:18:05;7.53;;;3.90;;
65477;SDS011;53678;39.642;22.430;2022-10-17T15:20:33;4.93;;;3.70;;
65477;SDS011;53678;39.642;22.430;2022-10-17T15:22:59;5.97;;;3.50;;
65477;SDS011;53678;39.642;22.430;2022-10-17T15:25:27;9.43;;;3.22;;
65477;SDS011;53678;39.642;22.430;2022-10-17T15:27:54;10.25;;;3.75;;
65477;SDS011;53678;39.642;22.430;2022-10-17T15:32:51;6.72;;;3.92;;
65477;SDS011;53678;39.642;22.430;2022-10-17T15:35:18;9.43;;;4.43;;
65477;SDS011;53678;39.642;22.430;2022-10-17T15:37:44;5.13;;;4.00;;
65477;SDS011;53678;39.642;22.430;2022-10-17T15:40:15;6.32;;;4.03;;
65477;SDS011;53678;39.642;22.430;2022-10-17T15:42:46;7.35;;;3.80;;
65477;SDS011;53678;39.642;22.430;2022-10-17T15:45:13;6.90;;;4.20;;
65477;SDS011;53678;39.642;22.430;2022-10-17T15:47:41;7.25;;;4.50;;
65477;SDS011;53678;39.642;22.430;2022-10-17T15:50:15;6.93;;;4.13;;
65477;SDS011;53678;39.642;22.430;2022-10-17T15:55:08;10.30;;;3.95;;
65477;SDS011;53678;39.642;22.430;2022-10-17T15:57:35;8.57;;;4.40;;
65477;SDS011;53678;39.642;22.430;2022-10-17T16:00:06;5.68;;;3.88;;
65477;SDS011;53678;39.642;22.430;2022-10-17T16:02:39;6.47;;;4.00;;
65477;SDS011;53678;39.642;22.430;2022-10-17T16:07:47;6.38;;;4.35;;
65477;SDS011;53678;39.642;22.430;2022-10-17T16:10:14;8.45;;;5.05;;
65477;SDS011;53678;39.642;22.430;2022-10-17T16:12:41;6.63;;;4.80;;
65477;SDS011;53678;39.642;22.430;2022-10-17T16:15:14;8.20;;;5.22;;
65477;SDS011;53678;39.642;22.430;2022-10-17T16:17:42;6.35;;;4.47;;
65477;SDS011;53678;39.642;22.430;2022-10-17T16:20:09;13.02;;;4.68;;
65477;SDS011;53678;39.642;22.430;2022-10-17T16:22:36;13.65;;;5.00;;
65477;SDS011;53678;39.642;22.430;2022-10-17T16:25:06;10.43;;;4.82;;
65477;SDS011;53678;39.642;22.430;2022-10-17T16:27:45;6.25;;;4.70;;
65477;SDS011;53678;39.642;22.430;2022-10-17T16:30:12;7.70;;;4.75;;
65477;SDS011;53678;39.642;22.430;2022-10-17T16:32:38;7.15;;;4.65;;
65477;SDS011;53678;39.642;22.430;2022-10-17T16:35:05;10.15;;;4.68;;
65477;SDS011;53678;39.642;22.430;2022-10-17T16:37:31;9.57;;;5.05;;
65477;SDS011;53678;39.642;22.430;2022-10-17T16:39:57;9.95;;;5.90;;
65477;SDS011;53678;39.642;22.430;2022-10-17T16:42:23;10.38;;;4.72;;
65477;SDS011;53678;39.642;22.430;2022-10-17T16:44:49;9.55;;;6.03;;
65477;SDS011;53678;39.642;22.430;2022-10-17T16:47:16;8.82;;;6.00;;
65477;SDS011;53678;39.642;22.430;2022-10-17T16:49:42;9.57;;;6.18;;
65477;SDS011;53678;39.642;22.430;2022-10-17T16:52:10;13.48;;;7.07;;
65477;SDS011;53678;39.642;22.430;2022-10-17T16:54:36;8.07;;;6.30;;
65477;SDS011;53678;39.642;22.430;2022-10-17T16:57:02;11.38;;;6.93;;